Time;durP1;ratioP1;P1;durP2;ratioP2;P2;SDS_P1;SDS_P2;PMS_P1;PMS_P2;Temp;Humidity;BMP_temperature;BMP_pressure;BME280_temperature;BME280_humidity;BME280_pressure;Samples;Min_cycle;Max_cycle;Signal;HPM_P1;HPM_P2
2022/12/18 00:00:47;;;;;;;2.67;2.47;;;;;;;9.24;64.06;102171.71;1555172;92;21106;-50
2022/12/18 00:03:15;;;;;;;3.00;2.80;;;;;;;9.17;64.21;102177.71;1557869;91;21090;-50
2022/12/18 00:05:49;;;;;;;3.45;2.87;;;;;;;9.11;64.36;102172.48;1562289;91;21074;-50
2022/12/18 00:08:18;;;;;;;2.80;2.60;;;;;;;9.09;64.34;102179.39;1528990;93;21686;-50
2022/12/18 00:10:46;;;;;;;2.62;2.42;;;;;;;9.04;64.71;102185.00;1527268;93;21152;-50
2022/12/18 00:13:12;;;;;;;3.17;2.87;;;;;;;9.01;65.07;102179.77;1524420;93;21094;-50
2022/12/18 00:15:40;;;;;;;3.10;2.80;;;;;;;8.99;64.91;102181.06;1527184;93;21090;-51
2022/12/18 00:18:06;;;;;;;3.05;2.77;;;;;;;8.98;64.81;102187.55;1526636;93;21122;-50
2022/12/18 00:20:38;;;;;;;3.37;2.75;;;;;;;8.95;64.57;102188.81;1570251;89;21116;-50
2022/12/18 00:23:06;;;;;;;3.10;2.90;;;;;;;8.91;64.67;102203.50;1618864;87;21038;-50
2022/12/18 00:25:34;;;;;;;2.75;2.55;;;;;;;8.89;64.68;102204.34;1591467;88;21141;-51
2022/12/18 00:28:03;;;;;;;2.67;2.47;;;;;;;8.85;64.40;102212.97;1571717;90;21119;-50
2022/12/18 00:30:30;;;;;;;3.05;2.52;;;;;;;8.79;64.33;102215.51;1638061;84;21106;-50
2022/12/18 00:32:57;;;;;;;2.92;2.72;;;;;;;8.74;64.17;102213.28;1670495;85;21046;-51
2022/12/18 00:35:26;;;;;;;3.10;2.80;;;;;;;8.70;64.20;102223.20;1687787;84;21044;-50
2022/12/18 00:37:52;;;;;;;2.87;2.62;;;;;;;8.66;64.12;102224.03;1677572;84;21053;-50
2022/12/18 00:40:19;;;;;;;2.80;2.55;;;;;;;8.60;64.21;102231.75;1685059;83;21611;-50
2022/12/18 00:42:56;;;;;;;2.95;2.55;;;;;;;8.56;64.35;102241.66;1694069;83;21080;-50
2022/12/18 00:45:28;;;;;;;3.77;2.72;;;;;;;8.53;64.43;102250.73;1697669;83;21030;-49
2022/12/18 00:47:55;;;;;;;3.50;3.20;;;;;;;8.49;64.46;102248.95;1719344;83;21029;-49
2022/12/18 00:50:23;;;;;;;2.98;2.77;;;;;;;8.47;64.51;102258.45;1698486;83;21041;-48
2022/12/18 00:52:50;;;;;;;3.08;2.75;;;;;;;8.43;64.26;102263.16;1698559;83;21066;-49
2022/12/18 00:55:17;;;;;;;2.92;2.72;;;;;;;8.38;64.33;102266.99;1624086;87;21042;-49
2022/12/18 00:57:43;;;;;;;3.42;2.62;;;;;;;8.32;64.21;102261.74;1698254;83;21047;-49
2022/12/18 01:00:14;;;;;;;2.90;2.70;;;;;;;8.27;64.51;102280.67;1693917;83;21116;-49
2022/12/18 01:02:41;;;;;;;2.60;2.40;;;;;;;8.23;64.48;102274.55;1725864;83;21053;-50
2022/12/18 01:05:10;;;;;;;2.60;2.40;;;;;;;8.22;64.62;102272.83;1753413;80;20999;-48
2022/12/18 01:07:37;;;;;;;2.50;2.30;;;;;;;8.19;64.50;102277.55;1759623;80;21009;-50
2022/12/18 01:10:05;;;;;;;2.40;2.20;;;;;;;8.15;64.35;102287.44;1768591;80;21050;-50
2022/12/18 01:12:32;;;;;;;3.00;2.70;;;;;;;8.14;64.67;102280.50;1762241;80;21010;-49
2022/12/18 01:14:59;;;;;;;4.05;2.80;;;;;;;8.16;64.45;102291.75;1771232;80;21041;-49
2022/12/18 01:17:25;;;;;;;3.17;2.98;;;;;;;8.15;64.30;102293.92;1752858;80;21027;-49
2022/12/18 01:19:53;;;;;;;2.85;2.50;;;;;;;8.13;64.38;102302.11;1751081;80;21003;-49
2022/12/18 01:22:20;;;;;;;4.95;3.17;;;;;;;8.11;64.24;102296.03;1689947;83;21027;-49
2022/12/18 01:24:46;;;;;;;3.05;2.80;;;;;;;8.06;64.18;102297.67;1758131;80;21073;-49
2022/12/18 01:27:13;;;;;;;2.67;2.47;;;;;;;8.02;63.98;102302.38;1770093;80;21047;-49
2022/12/18 01:29:40;;;;;;;3.35;3.05;;;;;;;7.97;64.10;102307.95;1759351;80;21105;-49
2022/12/18 01:32:06;;;;;;;3.02;2.75;;;;;;;7.94;64.33;102322.14;1750615;80;21497;-49
2022/12/18 01:34:34;;;;;;;2.65;2.45;;;;;;;7.92;64.17;102317.36;1752387;80;21062;-49
2022/12/18 01:37:04;;;;;;;2.87;2.67;;;;;;;7.87;64.44;102321.59;1745914;80;21034;-49
2022/12/18 01:39:31;;;;;;;3.27;2.98;;;;;;;7.86;64.72;102325.05;1756309;80;21030;-50
2022/12/18 01:42:03;;;;;;;2.72;2.52;;;;;;;7.84;64.75;102318.98;1772775;80;21048;-49
2022/12/18 01:45:06;;;;;;;2.95;2.72;;;;;;;7.83;64.85;102330.18;1757379;80;21026;-50
2022/12/18 01:47:47;;;;;;;3.60;2.70;;;;;;;7.82;64.84;102317.21;1754163;80;21026;-50
2022/12/18 01:50:18;;;;;;;3.77;2.92;;;;;;;7.81;65.20;102342.25;1689132;84;21121;-50
2022/12/18 01:52:58;;;;;;;3.55;3.00;;;;;;;7.83;64.86;102337.95;1678098;84;21201;-50
2022/12/18 01:55:28;;;;;;;3.87;3.47;;;;;;;7.82;64.75;102338.82;1552245;90;21097;-50
2022/12/18 01:57:57;;;;;;;3.30;3.00;;;;;;;7.80;64.28;102347.00;1556651;90;21054;-50
2022/12/18 02:00:24;;;;;;;3.45;3.15;;;;;;;7.77;63.67;102344.80;1574228;88;21036;-49
2022/12/18 02:02:53;;;;;;;3.70;3.20;;;;;;;7.64;63.81;102349.33;1572342;88;21613;-48
2022/12/18 02:06:02;;;;;;;3.40;3.10;;;;;;;7.55;64.09;102357.83;1571403;88;21249;-49
2022/12/18 02:08:38;;;;;;;3.75;3.45;;;;;;;7.60;64.12;102359.20;1590257;88;21102;-49
2022/12/18 02:11:31;;;;;;;3.62;3.33;;;;;;;7.58;64.12;102374.73;1586193;88;21057;-49
2022/12/18 02:14:40;;;;;;;3.42;3.12;;;;;;;7.52;64.29;102372.04;1578670;88;21056;-50
2022/12/18 02:17:22;;;;;;;3.90;3.50;;;;;;;7.49;64.21;102388.81;1590788;88;21619;-49
2022/12/18 02:20:16;;;;;;;3.42;3.12;;;;;;;7.45;64.07;102390.91;1587273;87;21083;-49
2022/12/18 02:23:25;;;;;;;3.87;3.58;;;;;;;7.40;64.36;102390.81;1579763;88;22589;-49
2022/12/18 02:26:14;;;;;;;4.15;3.75;;;;;;;7.38;64.30;102389.04;1578458;89;21169;-49
2022/12/18 02:28:47;;;;;;;3.50;3.20;;;;;;;7.32;64.09;102404.47;1565825;89;21753;-50
2022/12/18 02:31:19;;;;;;;3.65;3.35;;;;;;;7.30;64.55;102400.98;1567219;89;21071;-48
2022/12/18 02:33:46;;;;;;;4.30;3.90;;;;;;;7.31;64.48;102401.45;1547645;90;21082;-49
2022/12/18 02:36:13;;;;;;;4.22;3.83;;;;;;;7.28;64.40;102398.38;1578150;89;21957;-49
2022/12/18 02:38:40;;;;;;;4.30;3.90;;;;;;;7.28;64.39;102410.03;1573701;90;21068;-49
2022/12/18 02:41:08;;;;;;;3.87;3.52;;;;;;;7.26;64.58;102399.19;1531578;92;21089;-49
2022/12/18 02:43:35;;;;;;;4.55;4.15;;;;;;;7.26;64.56;102400.06;1576892;89;21093;-50
2022/12/18 02:46:25;;;;;;;4.33;3.92;;;;;;;7.30;64.65;102407.45;1566433;89;21156;-49
2022/12/18 02:48:55;;;;;;;5.33;4.50;;;;;;;7.28;64.69;102400.97;1605111;89;21573;-49
2022/12/18 02:51:33;;;;;;;4.67;4.28;;;;;;;7.28;64.80;102410.44;1632483;85;21038;-49
2022/12/18 02:54:15;;;;;;;4.75;4.17;;;;;;;7.27;64.53;102415.19;1725614;81;21050;-49
2022/12/18 02:56:54;;;;;;;4.70;4.17;;;;;;;7.20;64.61;102415.49;1717016;82;21093;-49
2022/12/18 02:59:26;;;;;;;5.00;4.30;;;;;;;7.17;65.00;102419.75;1676174;84;21077;-49
2022/12/18 03:02:18;;;;;;;5.22;4.62;;;;;;;7.17;64.82;102435.28;1570721;90;21662;-49
2022/12/18 03:05:03;;;;;;;5.47;4.80;;;;;;;7.15;64.75;102444.29;1581407;89;21126;-49
2022/12/18 03:07:44;;;;;;;5.30;4.80;;;;;;;7.15;64.86;102446.87;1523313;93;21145;-50
2022/12/18 03:10:14;;;;;;;5.70;4.90;;;;;;;7.15;64.92;102457.69;1483788;96;21119;-49
2022/12/18 03:12:47;;;;;;;5.25;4.75;;;;;;;7.18;65.13;102469.38;1475351;97;21676;-49
2022/12/18 03:15:25;;;;;;;5.53;5.03;;;;;;;7.21;64.86;102465.56;1456022;98;21159;-49
2022/12/18 03:18:01;;;;;;;4.65;4.25;;;;;;;7.22;64.55;102480.23;1459836;98;21130;-49
2022/12/18 03:20:31;;;;;;;4.85;4.35;;;;;;;7.22;64.47;102488.00;1473596;96;21113;-49
2022/12/18 03:23:09;;;;;;;5.15;4.65;;;;;;;7.18;64.29;102494.84;1484435;95;21175;-49
2022/12/18 03:25:40;;;;;;;5.95;5.35;;;;;;;7.16;64.44;102497.83;1451177;98;21188;-50
2022/12/18 03:28:08;;;;;;;5.80;5.28;;;;;;;7.16;64.29;102506.01;1445377;98;21206;-49
2022/12/18 03:30:35;;;;;;;6.05;5.00;;;;;;;7.14;64.16;102502.10;1481443;96;21115;-49
2022/12/18 03:33:12;;;;;;;5.65;5.00;;;;;;;7.14;64.31;102505.11;1482091;96;21082;-49
2022/12/18 03:35:42;;;;;;;6.65;5.78;;;;;;;7.15;64.33;102501.69;1478675;96;21073;-49
2022/12/18 03:38:10;;;;;;;5.90;5.30;;;;;;;7.16;64.21;102504.30;1479576;96;21193;-49
2022/12/18 03:40:58;;;;;;;6.17;5.62;;;;;;;7.15;64.16;102517.22;1450593;98;21204;-49
2022/12/18 03:43:45;;;;;;;6.30;5.25;;;;;;;7.16;64.29;102524.13;1443471;98;21197;-49
2022/12/18 03:46:28;;;;;;;5.87;5.28;;;;;;;7.16;64.33;102526.72;1455949;98;21122;-49
2022/12/18 03:49:12;;;;;;;6.17;5.58;;;;;;;7.15;64.24;102539.23;1454882;98;21105;-49
2022/12/18 03:51:49;;;;;;;7.12;6.40;;;;;;;7.14;64.21;102541.34;1449616;98;21171;-49
2022/12/18 03:54:17;;;;;;;6.17;5.58;;;;;;;7.14;64.23;102559.47;1442364;98;21566;-50
2022/12/18 03:56:50;;;;;;;7.08;6.37;;;;;;;7.14;64.22;102556.47;1438744;98;21138;-50
2022/12/18 03:59:17;;;;;;;7.45;6.75;;;;;;;7.16;64.33;102559.96;1499010;93;21059;-49
2022/12/18 04:01:47;;;;;;;8.10;7.10;;;;;;;7.19;64.66;102568.22;1515392;93;21566;-49
2022/12/18 04:04:15;;;;;;;8.70;7.80;;;;;;;7.22;64.61;102573.44;1562412;90;21098;-49
2022/12/18 04:06:44;;;;;;;8.80;7.90;;;;;;;7.23;64.38;102576.05;1629226;83;21552;-49
2022/12/18 04:09:12;;;;;;;9.65;8.50;;;;;;;7.21;64.00;102582.06;1709886;83;21064;-50
2022/12/18 04:11:43;;;;;;;10.13;9.10;;;;;;;7.20;63.71;102581.59;1652484;83;21173;-51
2022/12/18 04:14:11;;;;;;;9.30;8.30;;;;;;;7.17;63.47;102578.96;1682498;83;21112;-51
2022/12/18 04:16:38;;;;;;;10.10;8.98;;;;;;;7.13;63.37;102586.22;1682974;83;21055;-50
2022/12/18 04:19:05;;;;;;;9.88;8.93;;;;;;;7.10;63.34;102583.55;1699266;83;21532;-51
2022/12/18 04:21:35;;;;;;;10.43;9.38;;;;;;;7.08;63.35;102589.11;1701581;83;21062;-50
2022/12/18 04:24:02;;;;;;;9.85;8.75;;;;;;;7.07;63.68;102591.23;1687701;83;21051;-49
2022/12/18 04:26:29;;;;;;;11.48;10.08;;;;;;;7.06;63.79;102594.67;1701062;82;21017;-50
2022/12/18 04:28:57;;;;;;;10.68;9.58;;;;;;;7.07;63.53;102609.34;1625617;87;21127;-51
2022/12/18 04:31:24;;;;;;;9.93;8.73;;;;;;;7.07;63.57;102606.76;1592937;89;21603;-50
2022/12/18 04:33:51;;;;;;;11.05;9.43;;;;;;;7.06;63.47;102607.62;1623268;86;21176;-50
2022/12/18 04:36:18;;;;;;;10.78;9.68;;;;;;;7.03;63.56;102607.53;1611623;88;21055;-50
2022/12/18 04:38:44;;;;;;;13.08;10.70;;;;;;;7.04;63.59;102615.36;1617536;88;21123;-50
2022/12/18 04:41:13;;;;;;;11.63;10.00;;;;;;;7.01;63.41;102623.04;1656641;84;21131;-49
2022/12/18 04:43:40;;;;;;;11.43;9.45;;;;;;;7.01;63.51;102628.62;1672047;84;21068;-50
2022/12/18 04:46:08;;;;;;;13.45;10.88;;;;;;;7.03;63.42;102634.70;1671931;84;21101;-50
2022/12/18 04:48:34;;;;;;;11.05;9.85;;;;;;;7.01;63.25;102627.33;1658755;84;21558;-50
2022/12/18 04:51:03;;;;;;;11.15;9.78;;;;;;;6.96;63.04;102641.91;1668976;84;21012;-51
2022/12/18 04:53:29;;;;;;;12.30;10.25;;;;;;;6.93;63.24;102640.11;1658061;84;21504;-50
2022/12/18 04:56:06;;;;;;;14.50;10.93;;;;;;;6.93;63.10;102650.87;1665853;84;21081;-50
2022/12/18 04:58:33;;;;;;;13.10;10.90;;;;;;;6.92;62.83;102647.84;1671022;84;21034;-50
2022/12/18 05:01:01;;;;;;;13.03;11.48;;;;;;;6.89;62.97;102654.23;1663612;84;21422;-50
2022/12/18 05:03:27;;;;;;;12.98;11.00;;;;;;;6.87;62.99;102658.50;1654144;84;21588;-50
2022/12/18 05:05:54;;;;;;;13.45;11.15;;;;;;;6.84;62.85;102657.15;1655196;85;21026;-51
2022/12/18 05:08:21;;;;;;;16.05;11.83;;;;;;;6.78;62.69;102664.77;1658406;84;21129;-50
2022/12/18 05:10:47;;;;;;;13.90;11.38;;;;;;;6.73;62.71;102668.94;1660107;84;21027;-51
2022/12/18 05:13:14;;;;;;;16.17;12.05;;;;;;;6.68;62.63;102670.56;1674731;84;21076;-51
2022/12/18 05:15:41;;;;;;;14.73;11.70;;;;;;;6.62;62.32;102671.67;1658532;84;21066;-50
2022/12/18 05:18:08;;;;;;;15.08;11.68;;;;;;;6.58;62.42;102684.95;1657677;84;21116;-50
2022/12/18 05:20:35;;;;;;;15.23;12.35;;;;;;;6.54;62.57;102687.01;1661160;84;21551;-49
2022/12/18 05:23:01;;;;;;;14.50;12.05;;;;;;;6.51;62.61;102695.56;1672373;84;21102;-50
2022/12/18 05:25:28;;;;;;;15.83;12.75;;;;;;;6.49;62.55;102695.94;1699134;80;21097;-51
2022/12/18 05:27:54;;;;;;;16.85;12.85;;;;;;;6.46;62.67;102692.41;1776337;80;21034;-49
2022/12/18 05:30:22;;;;;;;17.10;13.88;;;;;;;6.45;62.68;102694.11;1753081;80;21542;-50
2022/12/18 05:32:48;;;;;;;16.05;13.10;;;;;;;6.41;63.04;102701.33;1761881;80;21065;-49
2022/12/18 05:35:16;;;;;;;14.23;11.10;;;;;;;6.41;63.33;102709.09;1761769;80;20990;-50
2022/12/18 05:37:42;;;;;;;16.55;13.50;;;;;;;6.43;62.94;102706.12;1760278;80;21078;-48
2022/12/18 05:40:11;;;;;;;14.95;12.82;;;;;;;6.43;62.88;102711.30;1757138;80;21066;-48
2022/12/18 05:42:37;;;;;;;13.70;11.53;;;;;;;6.45;62.90;102712.21;1744471;80;21070;-49
2022/12/18 05:45:05;;;;;;;15.70;12.50;;;;;;;6.44;62.46;102720.82;1761796;80;21042;-48
2022/12/18 05:47:32;;;;;;;15.25;12.25;;;;;;;6.43;62.75;102729.40;1753346;80;21077;-49
2022/12/18 05:49:59;;;;;;;18.48;13.08;;;;;;;6.42;62.75;102742.30;1756697;81;21014;-48
2022/12/18 05:52:25;;;;;;;18.45;13.95;;;;;;;6.42;62.80;102752.23;1758186;80;21570;-48
2022/12/18 05:54:52;;;;;;;17.02;13.00;;;;;;;6.41;62.83;102751.75;1762158;80;21126;-48
2022/12/18 05:57:18;;;;;;;15.68;13.38;;;;;;;6.47;62.28;102753.66;1752306;80;21038;-48
2022/12/18 05:59:45;;;;;;;19.45;13.90;;;;;;;6.48;61.79;102766.61;1755198;80;21035;-49
2022/12/18 06:02:11;;;;;;;17.57;14.43;;;;;;;6.49;62.05;102781.28;1766208;80;21092;-49
2022/12/18 06:04:38;;;;;;;18.60;14.90;;;;;;;6.49;62.06;102778.69;1754325;80;21090;-48
2022/12/18 06:07:05;;;;;;;17.92;13.98;;;;;;;6.45;61.39;102787.20;1745748;80;21034;-48
2022/12/18 06:09:32;;;;;;;19.37;14.03;;;;;;;6.44;61.51;102800.98;1754326;80;20993;-48
2022/12/18 06:11:58;;;;;;;18.73;14.13;;;;;;;6.44;61.40;102807.45;1740711;81;21053;-49
2022/12/18 06:14:25;;;;;;;19.52;14.93;;;;;;;6.46;61.22;102807.08;1750304;80;21534;-49
2022/12/18 06:16:52;;;;;;;22.62;15.65;;;;;;;6.48;60.87;102820.92;1756524;80;21517;-48
2022/12/18 06:19:18;;;;;;;18.82;14.43;;;;;;;6.46;60.58;102832.05;1759871;80;21083;-48
2022/12/18 06:21:45;;;;;;;18.55;13.95;;;;;;;6.44;60.70;102829.44;1750840;80;21034;-48
2022/12/18 06:24:12;;;;;;;17.05;14.40;;;;;;;6.44;60.54;102829.44;1749065;80;21043;-49
2022/12/18 06:26:39;;;;;;;20.43;15.40;;;;;;;6.46;60.49;102835.52;1765375;80;21498;-48
2022/12/18 06:29:06;;;;;;;21.35;15.35;;;;;;;6.46;59.96;102848.45;1761398;80;20995;-48
2022/12/18 06:31:32;;;;;;;19.10;14.93;;;;;;;6.43;60.03;102850.94;1757120;80;21050;-49
2022/12/18 06:34:02;;;;;;;20.17;16.17;;;;;;;6.40;59.94;102859.92;1771497;80;21045;-48
2022/12/18 06:36:29;;;;;;;18.50;14.60;;;;;;;6.41;60.25;102856.48;1737810;80;21037;-49
2022/12/18 06:38:56;;;;;;;20.32;15.23;;;;;;;6.44;60.44;102863.05;1750134;80;21553;-48
2022/12/18 06:41:22;;;;;;;22.10;15.65;;;;;;;6.47;59.89;102868.30;1768872;80;21010;-48
2022/12/18 06:43:50;;;;;;;18.65;14.70;;;;;;;6.47;59.92;102869.59;1753432;80;21079;-48
2022/12/18 06:46:16;;;;;;;20.12;16.12;;;;;;;6.47;59.97;102876.05;1751885;80;21060;-48
2022/12/18 06:48:49;;;;;;;21.37;16.65;;;;;;;6.47;59.70;102870.87;1730222;81;21050;-49
2022/12/18 06:51:20;;;;;;;22.25;16.25;;;;;;;6.49;59.64;102878.27;1746764;80;21074;-49
2022/12/18 06:53:47;;;;;;;;;;;;;;;6.47;59.66;102877.34;1779658;80;21005;-49
2022/12/18 06:56:13;;;;;;;21.17;14.90;;;;;;;6.46;59.74;102879.48;1753691;80;20138;-48
2022/12/18 06:58:40;;;;;;;21.95;16.48;;;;;;;6.45;59.57;102880.30;1721573;82;21102;-49
2022/12/18 07:01:10;;;;;;;20.08;14.50;;;;;;;6.46;59.52;102882.07;1704702;83;21575;-48
2022/12/18 07:03:38;;;;;;;20.55;14.78;;;;;;;6.45;59.46;102873.84;1760969;80;21050;-48
2022/12/18 07:06:05;;;;;;;20.77;16.25;;;;;;;6.44;59.46;102890.20;1762108;80;21018;-49
2022/12/18 07:08:32;;;;;;;21.90;16.00;;;;;;;6.44;59.07;102901.84;1759111;80;21018;-48
2022/12/18 07:10:58;;;;;;;19.55;15.75;;;;;;;6.41;58.88;102892.69;1758319;80;21038;-48
2022/12/18 07:13:25;;;;;;;19.50;14.20;;;;;;;6.41;59.00;102913.78;1757734;80;21069;-48
2022/12/18 07:15:52;;;;;;;19.98;15.00;;;;;;;6.41;59.00;102908.20;1757550;81;21027;-49
2022/12/18 07:18:18;;;;;;;20.43;15.35;;;;;;;6.39;58.49;102924.50;1747394;80;21049;-48
2022/12/18 07:20:45;;;;;;;19.75;15.00;;;;;;;6.37;58.53;102933.51;1762672;80;21021;-49
2022/12/18 07:23:11;;;;;;;21.27;15.55;;;;;;;6.31;58.71;102946.26;1774932;80;21572;-48
2022/12/18 07:25:39;;;;;;;22.30;15.85;;;;;;;6.36;58.66;102945.99;1748280;81;21072;-49
2022/12/18 07:28:05;;;;;;;20.82;14.95;;;;;;;6.32;58.28;102951.91;1748880;80;21077;-48
2022/12/18 07:30:32;;;;;;;20.70;15.80;;;;;;;6.32;58.38;102949.32;1696548;83;21529;-49
2022/12/18 07:32:59;;;;;;;20.12;14.87;;;;;;;6.32;57.93;102957.08;1700182;83;21066;-48
2022/12/18 07:35:27;;;;;;;18.70;13.98;;;;;;;6.31;57.86;102969.53;1727300;82;21102;-49
2022/12/18 07:37:53;;;;;;;19.12;15.55;;;;;;;6.29;57.77;102963.43;1701274;82;21061;-48
2022/12/18 07:40:20;;;;;;;20.82;15.50;;;;;;;6.25;57.75;102962.88;1754694;81;21070;-48
2022/12/18 07:42:46;;;;;;;19.20;15.03;;;;;;;6.25;57.73;102964.17;1761832;80;21077;-48
2022/12/18 07:45:13;;;;;;;18.07;13.93;;;;;;;6.25;57.53;102979.68;1764539;80;21071;-49
2022/12/18 07:47:41;;;;;;;18.27;14.47;;;;;;;6.29;57.88;102976.36;1757544;80;21116;-49
2022/12/18 07:50:09;;;;;;;18.75;14.63;;;;;;;6.25;57.67;102975.80;1746310;80;21032;-48
2022/12/18 07:52:35;;;;;;;18.27;14.25;;;;;;;6.29;57.30;102985.41;1767929;80;21019;-48
2022/12/18 07:55:03;;;;;;;20.65;15.88;;;;;;;6.27;57.32;102990.95;1754200;80;21527;-48
2022/12/18 07:57:29;;;;;;;19.32;15.50;;;;;;;6.26;57.68;102995.67;1751441;80;21039;-48
2022/12/18 07:59:56;;;;;;;21.17;14.58;;;;;;;6.26;57.55;102990.91;1762978;80;21140;-48
2022/12/18 08:02:23;;;;;;;19.30;14.38;;;;;;;6.26;57.51;102996.97;1759448;80;21517;-48
2022/12/18 08:04:49;;;;;;;19.92;13.72;;;;;;;6.25;57.41;103008.12;1761262;80;21039;-49
2022/12/18 08:07:16;;;;;;;20.20;15.13;;;;;;;6.28;57.20;102997.89;1756547;80;21413;-48
2022/12/18 08:09:42;;;;;;;18.92;14.60;;;;;;;6.25;57.03;103004.24;1753196;80;21026;-49
2022/12/18 08:12:09;;;;;;;17.50;14.28;;;;;;;6.28;57.01;103008.23;1759195;80;21033;-48
2022/12/18 08:14:36;;;;;;;18.05;14.60;;;;;;;6.27;56.40;103005.17;1753468;80;21026;-48
2022/12/18 08:17:02;;;;;;;18.05;13.95;;;;;;;6.24;55.95;103005.09;1769868;80;21050;-48
2022/12/18 08:19:29;;;;;;;18.95;13.78;;;;;;;6.22;56.00;103010.59;1755373;80;21121;-49
2022/12/18 08:21:56;;;;;;;18.23;14.73;;;;;;;6.18;55.81;103004.86;1765378;80;21046;-49
2022/12/18 08:24:23;;;;;;;18.70;13.75;;;;;;;6.13;56.43;103005.15;1767454;80;21065;-48
2022/12/18 08:26:50;;;;;;;17.17;13.50;;;;;;;6.04;56.46;103010.01;1759647;81;21022;-48
2022/12/18 08:29:17;;;;;;;18.92;14.63;;;;;;;5.97;56.46;103022.28;1755367;80;21071;-49
2022/12/18 08:31:43;;;;;;;18.17;13.80;;;;;;;6.03;56.41;103022.48;1769591;80;21509;-48
2022/12/18 08:34:10;;;;;;;19.60;13.65;;;;;;;6.05;56.33;103036.74;1767995;80;21124;-48
2022/12/18 08:36:36;;;;;;;16.77;13.72;;;;;;;6.03;56.06;103032.83;1775495;80;21046;-48
2022/12/18 08:39:03;;;;;;;19.32;14.70;;;;;;;6.04;56.04;103038.88;1763435;80;21126;-49
2022/12/18 08:41:31;;;;;;;20.45;14.83;;;;;;;6.05;56.29;103026.41;1745136;80;21553;-49
2022/12/18 08:46:43;;;;;;;20.88;14.95;;;;;;;5.99;56.23;103043.89;1753429;81;21113;-49
2022/12/18 08:49:11;;;;;;;18.90;14.15;;;;;;;5.98;56.19;103042.52;1763835;80;21525;-48
2022/12/18 08:51:38;;;;;;;19.50;14.38;;;;;;;5.92;55.91;103036.75;1758346;80;21031;-48
2022/12/18 08:54:05;;;;;;;20.80;15.80;;;;;;;5.85;56.34;103046.43;1744925;80;21550;-48
2022/12/18 08:56:33;;;;;;;17.37;14.05;;;;;;;5.88;56.33;103046.52;1760778;81;21581;-48
2022/12/18 08:58:59;;;;;;;18.02;13.93;;;;;;;5.92;56.24;103047.48;1742173;80;21019;-48
2022/12/18 09:01:26;;;;;;;16.20;13.20;;;;;;;5.93;56.09;103046.27;1763898;81;21085;-48
2022/12/18 09:03:52;;;;;;;21.77;15.80;;;;;;;5.93;55.98;103047.56;1756090;80;21043;-48
2022/12/18 09:06:21;;;;;;;21.55;15.38;;;;;;;5.93;55.87;103059.59;1773797;80;21058;-48
2022/12/18 09:08:49;;;;;;;16.32;13.78;;;;;;;5.90;55.91;103050.03;1756010;80;21050;-48
2022/12/18 09:11:22;;;;;;;18.37;14.90;;;;;;;5.88;56.13;103046.52;1762973;80;21045;-48
2022/12/18 09:13:49;;;;;;;20.55;15.08;;;;;;;5.88;56.16;103054.27;1755346;80;21525;-49
2022/12/18 09:16:16;;;;;;;20.27;14.28;;;;;;;5.91;56.31;103053.50;1766823;80;21024;-49
2022/12/18 09:18:43;;;;;;;18.17;13.88;;;;;;;5.94;56.48;103064.80;1757722;80;21078;-48
2022/12/18 09:21:15;;;;;;;19.98;14.50;;;;;;;5.90;56.64;103055.20;1756692;80;21038;-48
2022/12/18 09:23:42;;;;;;;17.15;13.83;;;;;;;5.91;56.63;103054.38;1749740;80;21105;-48
2022/12/18 09:26:09;;;;;;;18.57;14.05;;;;;;;5.97;56.34;103057.17;1749577;80;21091;-49
2022/12/18 09:28:35;;;;;;;18.48;12.95;;;;;;;5.99;55.89;103054.23;1762701;80;21104;-48
2022/12/18 09:31:07;;;;;;;18.98;15.00;;;;;;;6.01;56.11;103063.31;1762667;80;21089;-48
2022/12/18 09:33:35;;;;;;;20.08;14.30;;;;;;;6.03;56.34;103069.00;1762646;80;21058;-48
2022/12/18 09:36:08;;;;;;;18.60;13.65;;;;;;;6.09;56.40;103073.08;1751466;80;21053;-48
2022/12/18 09:38:35;;;;;;;19.35;14.03;;;;;;;6.02;56.02;103065.94;1747923;80;21486;-49
2022/12/18 09:41:53;;;;;;;17.27;13.72;;;;;;;6.00;55.74;103066.30;1762379;80;21027;-49
2022/12/18 09:44:41;;;;;;;18.00;13.83;;;;;;;6.00;56.01;103070.58;1642095;86;21557;-48
2022/12/18 09:47:24;;;;;;;17.23;13.90;;;;;;;6.04;55.94;103077.20;1660722;86;21113;-48
2022/12/18 09:50:04;;;;;;;17.95;14.00;;;;;;;6.01;55.92;103069.37;1653967;85;21571;-48
2022/12/18 09:52:37;;;;;;;16.32;12.95;;;;;;;6.04;56.09;103063.43;1654551;86;21114;-48
2022/12/18 09:55:38;;;;;;;18.45;14.03;;;;;;;6.05;55.93;103066.05;1655445;85;21081;-48
2022/12/18 09:58:28;;;;;;;18.15;13.25;;;;;;;6.08;55.84;103063.55;1659202;86;21033;-49
2022/12/18 10:00:55;;;;;;;17.40;12.75;;;;;;;6.03;55.96;103054.79;1632721;86;21026;-49
2022/12/18 10:03:21;;;;;;;15.23;12.43;;;;;;;6.14;55.29;103049.54;1650875;86;21164;-49
2022/12/18 10:06:14;;;;;;;17.45;13.15;;;;;;;6.20;55.38;103051.03;1634935;86;21117;-48
2022/12/18 10:08:55;;;;;;;17.20;13.13;;;;;;;6.24;55.61;103041.28;1640832;86;21088;-48
2022/12/18 10:11:42;;;;;;;16.85;12.63;;;;;;;6.26;55.33;103056.42;1658740;86;21094;-49
2022/12/18 10:14:46;;;;;;;14.45;11.88;;;;;;;6.25;54.82;103059.83;1642576;86;21095;-49
2022/12/18 10:17:34;;;;;;;15.58;11.80;;;;;;;6.27;54.50;103049.53;1598084;89;21059;-48
2022/12/18 10:20:16;;;;;;;16.57;12.70;;;;;;;6.28;54.40;103046.13;1572370;89;21074;-48
2022/12/18 10:22:52;;;;;;;16.55;13.08;;;;;;;6.23;54.27;103048.56;1554678;91;21106;-49
2022/12/18 10:26:03;;;;;;;16.42;12.93;;;;;;;6.19;54.61;103067.39;1578612;89;21135;-49
2022/12/18 10:28:31;;;;;;;15.90;12.40;;;;;;;6.17;54.32;103065.16;1579942;89;21163;-48
2022/12/18 10:30:58;;;;;;;17.05;12.82;;;;;;;6.10;54.59;103065.78;1596244;88;21165;-49
2022/12/18 10:33:31;;;;;;;17.45;13.70;;;;;;;6.05;54.64;103062.18;1607959;88;21100;-48
2022/12/18 10:35:57;;;;;;;15.80;12.15;;;;;;;5.94;54.86;103060.05;1595898;88;21054;-48
2022/12/18 10:38:28;;;;;;;16.82;11.88;;;;;;;5.94;55.00;103076.84;1602295;88;21085;-49
2022/12/18 10:41:05;;;;;;;15.38;12.45;;;;;;;5.97;54.90;103077.84;1592688;89;21087;-48
2022/12/18 10:43:39;;;;;;;17.32;12.65;;;;;;;5.97;54.72;103077.84;1575562;89;21135;-48
2022/12/18 10:46:14;;;;;;;15.03;12.15;;;;;;;5.94;55.03;103082.89;1582788;89;21560;-48
2022/12/18 10:48:52;;;;;;;15.18;12.43;;;;;;;5.99;55.36;103088.23;1579742;90;21144;-48
2022/12/18 10:51:29;;;;;;;15.10;11.95;;;;;;;5.99;55.58;103090.41;1554291;89;21141;-48
2022/12/18 10:54:16;;;;;;;16.50;12.35;;;;;;;6.03;55.39;103090.97;1604247;88;21081;-49
2022/12/18 10:56:43;;;;;;;17.10;12.88;;;;;;;6.09;55.02;103092.47;1567742;89;21228;-48
2022/12/18 10:59:14;;;;;;;13.85;12.37;;;;;;;6.04;55.11;103103.05;1584509;89;21134;-49
2022/12/18 11:01:56;;;;;;;15.50;11.68;;;;;;;6.03;55.19;103100.02;1625828;87;21074;-49
2022/12/18 11:04:26;;;;;;;15.32;11.38;;;;;;;6.09;54.86;103104.09;1628214;87;21106;-48
2022/12/18 11:07:07;;;;;;;15.30;12.53;;;;;;;6.09;54.52;103101.52;1626709;87;21066;-49
2022/12/18 11:09:38;;;;;;;14.70;11.63;;;;;;;6.10;54.39;103107.13;1627172;87;21142;-49
2022/12/18 11:12:14;;;;;;;15.00;12.25;;;;;;;6.12;54.72;103102.89;1625682;88;21539;-49
2022/12/18 11:14:53;;;;;;;15.38;12.28;;;;;;;6.15;54.27;103112.06;1652315;86;21891;-49
2022/12/18 11:20:08;;;;;;;15.90;11.90;;;;;;;6.15;54.70;103099.13;1574859;90;21053;-49
2022/12/18 11:22:36;;;;;;;15.00;12.00;;;;;;;6.16;54.36;103103.45;1554607;90;21162;-49
2022/12/18 11:25:07;;;;;;;15.38;12.47;;;;;;;6.14;54.04;103103.82;1552125;91;21673;-48
2022/12/18 11:27:35;;;;;;;15.95;12.80;;;;;;;6.11;54.25;103102.44;1490099;94;21213;-48
2022/12/18 11:30:23;;;;;;;16.97;13.62;;;;;;;6.09;54.17;103117.02;1494937;94;21146;-48
2022/12/18 11:32:56;;;;;;;18.45;13.22;;;;;;;6.04;54.48;103105.64;1493258;94;21623;-48
2022/12/18 11:35:47;;;;;;;16.15;12.98;;;;;;;5.98;54.36;103112.30;1483915;95;21591;-49
2022/12/18 11:38:35;;;;;;;17.65;13.98;;;;;;;5.97;54.84;103110.55;1483682;95;21129;-48
2022/12/18 11:44:38;;;;;;;19.12;13.85;;;;;;;5.98;54.73;103110.59;1472644;95;21484;-49
2022/12/18 11:47:25;;;;;;;18.12;13.50;;;;;;;5.95;54.73;103113.50;1433864;99;21158;-48
2022/12/18 17:18:40;;;;;;;16.45;8.90;;;;;;;3.55;61.07;103519.64;1770464;80;21062;-57
2022/12/18 17:21:08;;;;;;;12.60;8.98;;;;;;;3.85;59.87;103523.77;1752757;81;21065;-57